Alexandria, Virginia
Current Conditions -  °F | °C
As of 2:52 PM on Thursday 18 Dec 2014 (Local Time) from KDCA Reporting Station
Broken Clouds Broken Clouds  
Wind Chill: 35°   Ceiling: 25000
Heat Index: 42°   Visibility: 10mi
Dew Point: 22°   Wind: 13mph
Humidity: 45%   Direction: 300°WNW
Pressure: 30.11"   Gusts: 20mph
Location:  38.8°N, 77.04°W
Report Text: KDCA 181952Z 30011G17KT 10SM SCT040 BKN250 06/M06 A3011 RMK AO2 SLP196 T00561056
Loading
Personal Weather Stations






























Interactive Weather Map New forecast layout! Learn more

10-Day Weather Forecast

Advertisements
Track Severe Weather on mobile